Time;durP1;ratioP1;P1;durP2;ratioP2;P2;SDS_P1;SDS_P2;PMS_P1;PMS_P2;Temp;Humidity;BMP_temperature;BMP_pressure;BME280_temperature;BME280_humidity;BME280_pressure;Samples;Min_cycle;Max_cycle;Signal;HPM_P1;HPM_P2
2023/01/17 00:02:11;;;;;;;5.35;3.80;;;;;;;;;;5063502;28;20020;-84
2023/01/17 00:10:13;;;;;;;7.13;4.20;;;;;;;;;;5056854;28;20086;-82
2023/01/17 00:12:44;;;;;;;7.15;4.47;;;;;;;;;;5057971;28;20052;-82
2023/01/17 00:15:09;;;;;;;8.15;5.57;;;;;;;;;;5065194;28;20059;-85
2023/01/17 00:17:35;;;;;;;7.13;5.28;;;;;;;;;;5068676;28;20442;-81
2023/01/17 01:35:07;;;;;;;6.32;2.80;;;;;;;;;;5062931;28;20035;-83
2023/01/17 01:37:32;;;;;;;7.30;2.95;;;;;;;;;;5065657;28;20385;-83
2023/01/17 01:39:58;;;;;;;7.80;3.50;;;;;;;;;;5060172;28;20083;-83
2023/01/17 01:42:23;;;;;;;5.85;2.22;;;;;;;;;;5067857;28;20020;-85
2023/01/17 01:44:51;;;;;;;2.05;1.85;;;;;;;;;;5060823;28;21668;-82
2023/01/17 01:47:37;;;;;;;2.60;1.80;;;;;;;;;;5069660;28;20028;-85
2023/01/17 01:50:06;;;;;;;2.55;1.60;;;;;;;;;;5064572;28;20028;-82
2023/01/17 01:52:35;;;;;;;6.20;2.42;;;;;;;;;;5068044;28;20035;-83
2023/01/17 01:55:06;;;;;;;4.22;2.47;;;;;;;;;;5060612;28;20439;-80
2023/01/17 01:57:38;;;;;;;5.13;2.33;;;;;;;;;;5066264;28;20039;-83
2023/01/17 02:00:15;;;;;;;2.88;2.28;;;;;;;;;;5064015;28;20021;-82
2023/01/17 02:02:42;;;;;;;1.63;1.35;;;;;;;;;;5054474;28;20025;-84
2023/01/17 02:05:10;;;;;;;3.53;1.90;;;;;;;;;;5063712;28;20024;-83
2023/01/17 02:07:42;;;;;;;5.82;3.90;;;;;;;;;;5064071;28;20028;-85
2023/01/17 02:10:08;;;;;;;0.65;0.65;;;;;;;;;;5066893;28;20108;-81
2023/01/17 02:12:34;;;;;;;0.52;0.52;;;;;;;;;;5065667;28;20024;-81
2023/01/17 02:15:00;;;;;;;1.65;1.02;;;;;;;;;;5067605;28;20029;-85
2023/01/17 02:18:15;;;;;;;3.78;1.75;;;;;;;;;;5059643;28;20029;-82
2023/01/17 02:20:59;;;;;;;2.70;1.45;;;;;;;;;;5049045;28;20032;-86
2023/01/17 02:23:30;;;;;;;3.03;1.67;;;;;;;;;;5059403;28;20028;-82
2023/01/17 02:26:25;;;;;;;1.90;1.30;;;;;;;;;;5060780;28;20029;-83
2023/01/17 02:29:24;;;;;;;1.85;1.48;;;;;;;;;;5065723;28;20401;-83
2023/01/17 02:32:11;;;;;;;2.85;2.60;;;;;;;;;;5061504;28;20473;-83
2023/01/17 02:34:48;;;;;;;3.10;2.08;;;;;;;;;;5061093;28;20115;-82
2023/01/17 02:37:20;;;;;;;6.93;2.42;;;;;;;;;;5059971;28;20032;-83
2023/01/17 02:39:52;;;;;;;2.70;1.77;;;;;;;;;;5063729;28;20126;-82
2023/01/17 02:42:25;;;;;;;2.05;1.92;;;;;;;;;;5059513;28;20098;-83
2023/01/17 02:44:50;;;;;;;2.00;1.75;;;;;;;;;;5062908;28;20059;-84
2023/01/17 02:47:27;;;;;;;2.80;1.48;;;;;;;;;;5061885;28;20385;-82
2023/01/17 02:50:00;;;;;;;0.70;0.70;;;;;;;;;;5055884;28;20026;-83
2023/01/17 02:52:36;;;;;;;2.50;2.15;;;;;;;;;;5064538;28;20025;-86
2023/01/17 02:55:21;;;;;;;0.93;0.82;;;;;;;;;;5064974;28;20051;-90
2023/01/17 02:58:05;;;;;;;2.33;2.03;;;;;;;;;;5062409;28;20111;-88
2023/01/17 03:00:42;;;;;;;4.40;2.05;;;;;;;;;;5061975;28;20082;-85
2023/01/17 03:03:25;;;;;;;3.22;2.92;;;;;;;;;;5060145;28;20024;-87
2023/01/17 03:05:58;;;;;;;2.70;1.80;;;;;;;;;;5062296;28;20021;-86
2023/01/17 03:08:24;;;;;;;3.03;2.65;;;;;;;;;;5064749;28;20021;-84
2023/01/17 03:10:50;;;;;;;2.40;2.20;;;;;;;;;;5057765;28;20028;-86
2023/01/17 03:13:15;;;;;;;5.05;3.00;;;;;;;;;;5056433;28;20101;-86
2023/01/17 03:15:41;;;;;;;4.88;2.75;;;;;;;;;;5062653;28;20040;-86
2023/01/17 03:18:13;;;;;;;4.97;2.63;;;;;;;;;;5060241;28;20550;-84
2023/01/17 03:20:38;;;;;;;5.95;3.45;;;;;;;;;;5057264;28;20376;-86
2023/01/17 03:23:04;;;;;;;4.28;2.90;;;;;;;;;;5064249;28;20112;-84
2023/01/17 03:25:29;;;;;;;4.70;2.17;;;;;;;;;;5062576;28;20100;-84
2023/01/17 03:27:55;;;;;;;0.60;0.60;;;;;;;;;;5059591;28;20024;-85
2023/01/17 03:30:21;;;;;;;0.65;0.65;;;;;;;;;;5060616;28;20072;-85
2023/01/17 03:32:48;;;;;;;8.93;0.70;;;;;;;;;;5058908;28;20024;-85
2023/01/17 03:35:13;;;;;;;2.67;0.50;;;;;;;;;;5060677;28;20028;-83
2023/01/17 03:37:39;;;;;;;1.23;1.08;;;;;;;;;;5062415;28;20033;-85
2023/01/17 03:40:05;;;;;;;0.10;0.10;;;;;;;;;;5065050;28;20055;-84
2023/01/17 03:42:30;;;;;;;3.40;2.33;;;;;;;;;;5063466;28;20020;-84
2023/01/17 03:44:55;;;;;;;4.63;2.65;;;;;;;;;;5064458;28;20035;-84
2023/01/17 03:47:21;;;;;;;4.25;2.72;;;;;;;;;;5059911;28;20170;-83
2023/01/17 03:49:46;;;;;;;6.57;3.05;;;;;;;;;;5056971;28;20030;-84
2023/01/17 03:52:11;;;;;;;6.05;2.42;;;;;;;;;;5062523;28;20431;-84
2023/01/17 03:54:37;;;;;;;8.20;4.90;;;;;;;;;;5059293;28;20053;-84
2023/01/17 03:57:02;;;;;;;2.28;1.52;;;;;;;;;;5053406;28;20025;-84
2023/01/17 03:59:28;;;;;;;3.75;3.17;;;;;;;;;;5057933;28;20020;-85
2023/01/17 04:01:53;;;;;;;1.88;1.70;;;;;;;;;;5063375;28;20020;-84
2023/01/17 04:04:18;;;;;;;2.78;2.28;;;;;;;;;;5060268;28;20119;-86
2023/01/17 04:06:44;;;;;;;8.88;3.78;;;;;;;;;;5067345;28;20036;-85
2023/01/17 04:09:09;;;;;;;3.75;3.03;;;;;;;;;;5061259;28;20033;-85
2023/01/17 04:11:35;;;;;;;4.60;2.72;;;;;;;;;;5061146;28;20078;-84
2023/01/17 04:14:00;;;;;;;6.68;2.97;;;;;;;;;;5060910;28;20036;-84
2023/01/17 04:16:28;;;;;;;5.30;2.55;;;;;;;;;;5066821;28;20518;-86
2023/01/17 04:18:54;;;;;;;1.50;1.17;;;;;;;;;;5062207;28;20025;-87
2023/01/17 04:21:20;;;;;;;4.75;3.03;;;;;;;;;;5067795;28;20020;-84
2023/01/17 04:23:46;;;;;;;3.90;2.50;;;;;;;;;;5060457;28;20021;-83
2023/01/17 04:26:12;;;;;;;3.38;2.65;;;;;;;;;;5060078;28;20033;-85
2023/01/17 04:28:37;;;;;;;2.85;2.47;;;;;;;;;;5055119;28;20045;-86
2023/01/17 04:31:02;;;;;;;3.67;3.08;;;;;;;;;;5059921;28;20472;-84
2023/01/17 04:33:28;;;;;;;1.30;1.15;;;;;;;;;;5053268;28;20075;-84
2023/01/17 04:35:54;;;;;;;2.13;1.33;;;;;;;;;;5069252;28;20032;-89
2023/01/17 04:38:20;;;;;;;1.35;0.90;;;;;;;;;;5055460;28;20460;-85
2023/01/17 04:40:45;;;;;;;0.22;0.20;;;;;;;;;;5061847;28;20025;-89
2023/01/17 04:43:11;;;;;;;0.43;0.38;;;;;;;;;;5061232;28;20546;-83
2023/01/17 04:45:37;;;;;;;0.40;0.30;;;;;;;;;;5064657;28;20056;-85
2023/01/17 04:48:04;;;;;;;0.50;0.50;;;;;;;;;;5062180;28;20103;-87
2023/01/17 04:50:30;;;;;;;0.65;0.32;;;;;;;;;;5062609;28;20416;-85
2023/01/17 04:52:55;;;;;;;0.20;0.20;;;;;;;;;;5056987;28;20060;-83
2023/01/17 04:55:20;;;;;;;0.73;0.43;;;;;;;;;;5056883;28;20055;-83
2023/01/17 04:57:46;;;;;;;0.20;0.20;;;;;;;;;;5057876;28;20400;-82
2023/01/17 05:00:12;;;;;;;0.22;0.22;;;;;;;;;;5050370;28;20051;-80
2023/01/17 05:02:38;;;;;;;0.35;0.35;;;;;;;;;;5053752;28;20052;-81
2023/01/17 05:05:05;;;;;;;0.20;0.20;;;;;;;;;;5056706;28;20103;-87
2023/01/17 05:07:30;;;;;;;0.20;0.20;;;;;;;;;;5051094;28;20058;-84
2023/01/17 05:09:55;;;;;;;0.43;0.43;;;;;;;;;;5054810;28;20032;-86
2023/01/17 05:12:21;;;;;;;0.20;0.20;;;;;;;;;;5056379;28;20041;-81
2023/01/17 05:14:46;;;;;;;0.70;0.43;;;;;;;;;;5050502;28;20047;-82
2023/01/17 05:17:12;;;;;;;0.20;0.20;;;;;;;;;;5050741;28;20029;-86
2023/01/17 05:19:37;;;;;;;0.20;0.20;;;;;;;;;;5050288;28;20033;-86
2023/01/17 05:22:13;;;;;;;0.10;0.10;;;;;;;;;;5053268;28;20025;-84
2023/01/17 05:24:39;;;;;;;0.20;0.20;;;;;;;;;;5057258;28;20039;-83
2023/01/17 05:27:05;;;;;;;0.20;0.20;;;;;;;;;;5055948;28;20502;-83
2023/01/17 05:29:30;;;;;;;0.35;0.35;;;;;;;;;;5053104;28;20021;-82
2023/01/17 05:31:56;;;;;;;0.50;0.50;;;;;;;;;;5052142;28;20037;-83
2023/01/17 05:34:21;;;;;;;0.10;0.10;;;;;;;;;;5053276;28;20051;-84
2023/01/17 05:36:47;;;;;;;0.20;0.20;;;;;;;;;;5057522;28;20029;-83
2023/01/17 05:39:12;;;;;;;0.30;0.25;;;;;;;;;;5057023;28;20021;-84
2023/01/17 05:41:37;;;;;;;0.20;0.20;;;;;;;;;;5060482;28;20036;-83
2023/01/17 05:44:03;;;;;;;0.45;0.40;;;;;;;;;;5061096;28;20047;-82
2023/01/17 05:46:29;;;;;;;0.30;0.30;;;;;;;;;;5055647;28;20020;-85
2023/01/17 05:48:54;;;;;;;0.47;0.47;;;;;;;;;;5062779;28;20032;-84
2023/01/17 05:51:19;;;;;;;0.35;0.35;;;;;;;;;;5057410;28;20040;-84
2023/01/17 05:53:45;;;;;;;0.10;0.10;;;;;;;;;;5057969;28;20017;-84
2023/01/17 05:56:10;;;;;;;0.80;0.50;;;;;;;;;;5055893;28;20202;-83
2023/01/17 05:58:35;;;;;;;0.30;0.30;;;;;;;;;;5060440;28;20428;-82
2023/01/17 06:01:01;;;;;;;0.22;0.22;;;;;;;;;;5057406;28;20028;-83
2023/01/17 06:03:26;;;;;;;0.30;0.30;;;;;;;;;;5057252;28;20025;-84
2023/01/17 06:05:52;;;;;;;0.20;0.20;;;;;;;;;;5057221;28;20043;-83
2023/01/17 06:08:17;;;;;;;0.10;0.10;;;;;;;;;;5055079;28;20021;-84
2023/01/17 06:10:42;;;;;;;0.20;0.20;;;;;;;;;;5062371;28;20876;-82
2023/01/17 06:13:14;;;;;;;0.50;0.50;;;;;;;;;;5056804;28;20043;-82
2023/01/17 06:15:39;;;;;;;0.35;0.22;;;;;;;;;;5055916;28;20036;-83
2023/01/17 06:18:06;;;;;;;0.75;0.75;;;;;;;;;;5059769;28;20099;-86
2023/01/17 06:20:32;;;;;;;0.17;0.17;;;;;;;;;;5052009;28;20378;-84
2023/01/17 06:23:06;;;;;;;0.40;0.40;;;;;;;;;;5059661;28;20021;-85
2023/01/17 06:25:47;;;;;;;0.70;0.40;;;;;;;;;;5060936;28;20024;-84
2023/01/17 06:28:14;;;;;;;0.20;0.20;;;;;;;;;;5059606;28;20031;-84
2023/01/17 06:30:40;;;;;;;1.55;0.65;;;;;;;;;;5061785;28;20035;-86
2023/01/17 06:33:06;;;;;;;0.20;0.20;;;;;;;;;;5063436;28;20028;-85
2023/01/17 06:35:31;;;;;;;0.35;0.35;;;;;;;;;;5058475;28;20032;-85
2023/01/17 06:37:58;;;;;;;0.20;0.20;;;;;;;;;;5054198;28;20139;-86
2023/01/17 06:40:25;;;;;;;0.70;0.40;;;;;;;;;;5063581;28;20724;-86
2023/01/17 06:42:50;;;;;;;0.85;0.63;;;;;;;;;;5061419;28;20370;-89
2023/01/17 06:45:17;;;;;;;0.20;0.20;;;;;;;;;;5059038;28;20098;-85
2023/01/17 06:47:42;;;;;;;0.30;0.30;;;;;;;;;;5061213;28;20036;-83
2023/01/17 06:50:11;;;;;;;0.50;0.50;;;;;;;;;;5064884;28;20115;-84
2023/01/17 06:52:36;;;;;;;0.25;0.25;;;;;;;;;;5056790;28;20060;-84
2023/01/17 06:55:02;;;;;;;0.30;0.30;;;;;;;;;;5057064;28;20146;-84
2023/01/17 06:57:27;;;;;;;0.38;0.38;;;;;;;;;;5059324;28;20024;-84
2023/01/17 06:59:52;;;;;;;0.47;0.47;;;;;;;;;;5062116;28;20020;-82
2023/01/17 07:02:18;;;;;;;1.65;0.85;;;;;;;;;;5062892;28;20027;-82
2023/01/17 07:04:43;;;;;;;0.60;0.60;;;;;;;;;;5059482;28;20597;-86
2023/01/17 07:07:08;;;;;;;0.50;0.50;;;;;;;;;;5057617;28;20035;-88
2023/01/17 07:09:34;;;;;;;0.65;0.65;;;;;;;;;;5063210;28;20020;-84
2023/01/17 07:12:00;;;;;;;0.30;0.30;;;;;;;;;;5064661;28;20028;-87
2023/01/17 07:14:27;;;;;;;0.85;0.70;;;;;;;;;;5064767;28;20024;-86
2023/01/17 07:16:53;;;;;;;0.77;0.40;;;;;;;;;;5064269;28;20104;-84
2023/01/17 07:19:18;;;;;;;0.30;0.30;;;;;;;;;;5054001;28;20150;-82
2023/01/17 07:21:43;;;;;;;0.50;0.40;;;;;;;;;;5056377;28;20020;-84
2023/01/17 07:24:09;;;;;;;0.57;0.50;;;;;;;;;;5058234;28;20020;-84
2023/01/17 07:26:36;;;;;;;0.28;0.28;;;;;;;;;;5056490;28;20370;-85
2023/01/17 07:29:03;;;;;;;0.50;0.47;;;;;;;;;;5060890;28;20020;-84
2023/01/17 07:31:29;;;;;;;0.43;0.43;;;;;;;;;;5054996;28;20112;-84
2023/01/17 07:33:54;;;;;;;0.63;0.50;;;;;;;;;;5061976;28;20104;-81
2023/01/17 07:36:19;;;;;;;0.73;0.68;;;;;;;;;;5053092;28;20025;-81
2023/01/17 07:38:45;;;;;;;0.52;0.52;;;;;;;;;;5061766;28;20033;-83
2023/01/17 07:41:11;;;;;;;0.68;0.40;;;;;;;;;;5054027;28;20035;-81
2023/01/17 07:43:36;;;;;;;0.38;0.38;;;;;;;;;;5057625;28;20372;-83
2023/01/17 07:46:06;;;;;;;1.20;0.95;;;;;;;;;;5061452;28;20391;-85
2023/01/17 07:48:32;;;;;;;;;;;;;;;;;;5057423;28;20461;-83
2023/01/17 07:50:57;;;;;;;0.50;0.50;;;;;;;;;;5055462;28;19938;-82
2023/01/17 07:53:25;;;;;;;0.93;0.57;;;;;;;;;;5061595;28;20474;-82
2023/01/17 07:55:51;;;;;;;0.70;0.55;;;;;;;;;;5061110;28;20438;-82
2023/01/17 07:58:16;;;;;;;0.60;0.52;;;;;;;;;;5060406;28;20029;-86
2023/01/17 08:00:43;;;;;;;0.32;0.32;;;;;;;;;;5058844;28;20457;-83
2023/01/17 08:03:13;;;;;;;1.17;0.43;;;;;;;;;;5059953;28;20048;-85
2023/01/17 08:05:40;;;;;;;0.20;0.20;;;;;;;;;;5063151;28;20445;-85
2023/01/17 08:08:05;;;;;;;0.30;0.30;;;;;;;;;;5056127;28;20464;-83
2023/01/17 08:10:31;;;;;;;0.30;0.30;;;;;;;;;;5055288;28;20036;-84
2023/01/17 08:12:56;;;;;;;0.22;0.22;;;;;;;;;;5053909;28;20029;-83
2023/01/17 08:15:22;;;;;;;0.60;0.50;;;;;;;;;;5059353;28;20040;-85
2023/01/17 08:17:52;;;;;;;0.52;0.50;;;;;;;;;;5050982;28;20028;-86
2023/01/17 08:20:19;;;;;;;0.85;0.50;;;;;;;;;;5084155;28;20112;-83
2023/01/17 08:22:44;;;;;;;0.30;0.30;;;;;;;;;;5051205;28;20029;-83
2023/01/17 08:25:11;;;;;;;1.50;0.88;;;;;;;;;;5059841;28;20095;-82
2023/01/17 08:27:37;;;;;;;1.17;1.08;;;;;;;;;;5051095;28;20033;-85
2023/01/17 08:30:04;;;;;;;7.78;3.60;;;;;;;;;;5052824;28;20502;-83
2023/01/17 08:32:29;;;;;;;0.43;0.40;;;;;;;;;;5054853;28;20077;-86
2023/01/17 08:34:56;;;;;;;0.75;0.60;;;;;;;;;;5053677;28;20032;-85
2023/01/17 08:37:21;;;;;;;0.50;0.40;;;;;;;;;;5051686;28;20037;-83
2023/01/17 08:39:47;;;;;;;0.93;0.80;;;;;;;;;;5062258;28;20119;-83
2023/01/17 08:42:12;;;;;;;0.45;0.40;;;;;;;;;;5051573;28;20143;-84
2023/01/17 08:44:38;;;;;;;0.40;0.40;;;;;;;;;;5050345;28;20036;-83
2023/01/17 08:47:04;;;;;;;0.60;0.60;;;;;;;;;;5057877;28;20029;-83
2023/01/17 08:49:29;;;;;;;0.50;0.50;;;;;;;;;;5052773;28;20021;-83
2023/01/17 08:51:54;;;;;;;0.50;0.50;;;;;;;;;;5052011;28;20029;-83
2023/01/17 08:54:21;;;;;;;0.30;0.30;;;;;;;;;;5056113;28;20382;-83
2023/01/17 08:56:47;;;;;;;0.40;0.40;;;;;;;;;;5060620;28;20695;-84
2023/01/17 08:59:13;;;;;;;0.35;0.35;;;;;;;;;;5058425;28;20147;-88
2023/01/17 09:01:44;;;;;;;0.50;0.50;;;;;;;;;;5063840;28;20063;-85
2023/01/17 09:04:10;;;;;;;1.75;0.50;;;;;;;;;;5056042;28;20057;-85
2023/01/17 09:06:38;;;;;;;0.50;0.40;;;;;;;;;;5053189;28;20813;-84
2023/01/17 09:09:06;;;;;;;0.30;0.30;;;;;;;;;;5054604;28;20476;-86
2023/01/17 09:11:32;;;;;;;0.40;0.40;;;;;;;;;;5057584;28;20424;-85
2023/01/17 09:13:57;;;;;;;0.30;0.30;;;;;;;;;;5063029;28;20064;-86
2023/01/17 09:16:23;;;;;;;0.73;0.50;;;;;;;;;;5055402;28;20520;-84
2023/01/17 09:18:52;;;;;;;0.25;0.25;;;;;;;;;;5052698;28;20112;-86
2023/01/17 09:21:18;;;;;;;0.35;0.35;;;;;;;;;;5057120;28;20021;-85
2023/01/17 09:23:45;;;;;;;0.55;0.52;;;;;;;;;;5049567;28;20033;-85
2023/01/17 09:26:29;;;;;;;0.20;0.20;;;;;;;;;;5053137;28;20024;-84
2023/01/17 09:28:55;;;;;;;0.57;0.50;;;;;;;;;;5047545;28;20029;-87
2023/01/17 09:31:22;;;;;;;0.40;0.40;;;;;;;;;;5063458;28;20025;-88
2023/01/17 09:33:49;;;;;;;0.40;0.40;;;;;;;;;;5057611;28;20082;-86
2023/01/17 09:36:15;;;;;;;0.73;0.60;;;;;;;;;;5056880;28;20546;-86
2023/01/17 09:38:41;;;;;;;0.55;0.30;;;;;;;;;;5055078;28;20028;-83
2023/01/17 09:41:51;;;;;;;0.47;0.43;;;;;;;;;;5059589;28;20112;-83
2023/01/17 09:44:22;;;;;;;;;;;;;;;;;;5039724;28;20500;-85
2023/01/17 09:46:50;;;;;;;2.58;0.90;;;;;;;;;;5060107;28;20003;-86
2023/01/17 09:49:19;;;;;;;0.30;0.30;;;;;;;;;;5056368;28;20109;-84
2023/01/17 09:51:45;;;;;;;1.77;0.60;;;;;;;;;;5061274;28;20028;-86
2023/01/17 09:54:21;;;;;;;0.50;0.50;;;;;;;;;;5059122;28;20024;-84
2023/01/17 09:56:59;;;;;;;0.52;0.50;;;;;;;;;;5061162;28;20064;-83
2023/01/17 09:59:37;;;;;;;0.95;0.40;;;;;;;;;;5057761;28;20028;-84
2023/01/17 10:02:06;;;;;;;0.30;0.30;;;;;;;;;;5064913;28;20028;-84
2023/01/17 10:04:50;;;;;;;0.65;0.60;;;;;;;;;;5060196;28;20032;-84
2023/01/17 10:07:31;;;;;;;1.10;0.85;;;;;;;;;;5056600;28;20388;-84
2023/01/17 10:10:08;;;;;;;0.43;0.40;;;;;;;;;;5058318;28;20036;-86
2023/01/17 10:12:49;;;;;;;0.68;0.65;;;;;;;;;;5057814;28;20025;-83
2023/01/17 10:15:49;;;;;;;0.63;0.63;;;;;;;;;;5058128;28;20527;-84
2023/01/17 10:18:37;;;;;;;2.42;0.40;;;;;;;;;;5062988;28;20480;-85
2023/01/17 10:21:20;;;;;;;0.65;0.50;;;;;;;;;;5064191;28;20047;-82
2023/01/17 10:24:16;;;;;;;0.20;0.20;;;;;;;;;;5056950;28;20496;-82
2023/01/17 10:26:49;;;;;;;0.38;0.28;;;;;;;;;;5058187;28;20029;-83
2023/01/17 10:29:17;;;;;;;0.88;0.85;;;;;;;;;;5054539;28;20493;-85
2023/01/17 10:31:50;;;;;;;0.50;0.50;;;;;;;;;;5062450;28;20107;-84
2023/01/17 10:34:30;;;;;;;0.20;0.20;;;;;;;;;;5060829;28;20468;-83
2023/01/17 10:37:04;;;;;;;0.57;0.50;;;;;;;;;;5063826;28;20051;-84
2023/01/17 10:39:30;;;;;;;0.55;0.40;;;;;;;;;;5061583;28;20025;-84
2023/01/17 10:42:15;;;;;;;0.55;0.40;;;;;;;;;;5061378;28;20017;-82
2023/01/17 10:44:49;;;;;;;0.45;0.45;;;;;;;;;;5054874;28;20036;-84
2023/01/17 10:47:23;;;;;;;0.93;0.47;;;;;;;;;;5054224;28;20029;-81
2023/01/17 10:49:52;;;;;;;2.70;0.90;;;;;;;;;;5053457;28;20090;-84
2023/01/17 10:52:54;;;;;;;0.33;0.30;;;;;;;;;;5054139;28;20591;-85
2023/01/17 10:55:22;;;;;;;0.47;0.47;;;;;;;;;;5057749;28;20045;-84
2023/01/17 10:57:49;;;;;;;0.47;0.47;;;;;;;;;;5056111;28;20442;-84
2023/01/17 11:00:42;;;;;;;0.50;0.50;;;;;;;;;;5058842;28;20035;-85
2023/01/17 11:03:09;;;;;;;0.20;0.20;;;;;;;;;;5054091;28;20420;-85
2023/01/17 11:05:35;;;;;;;0.90;0.50;;;;;;;;;;5057737;28;20031;-84
2023/01/17 11:08:02;;;;;;;0.77;0.77;;;;;;;;;;5062963;28;20036;-83
2023/01/17 11:10:36;;;;;;;2.08;0.70;;;;;;;;;;5051073;28;20045;-84
2023/01/17 11:13:24;;;;;;;0.90;0.60;;;;;;;;;;5057368;28;20032;-85
2023/01/17 11:15:56;;;;;;;0.40;0.40;;;;;;;;;;5054472;28;20041;-83
2023/01/17 11:18:26;;;;;;;0.75;0.75;;;;;;;;;;5061020;28;20024;-82
2023/01/17 11:20:52;;;;;;;1.30;0.70;;;;;;;;;;5058114;28;20032;-84
2023/01/17 11:24:07;;;;;;;0.40;0.40;;;;;;;;;;5063118;28;20064;-85
2023/01/17 11:26:35;;;;;;;0.43;0.35;;;;;;;;;;5052281;28;20037;-85
2023/01/17 11:29:26;;;;;;;1.38;0.82;;;;;;;;;;5061798;28;20454;-84
2023/01/17 11:31:52;;;;;;;0.88;0.82;;;;;;;;;;5053491;28;20037;-82
2023/01/17 11:34:23;;;;;;;2.83;2.10;;;;;;;;;;5058457;28;20064;-84
2023/01/17 11:37:07;;;;;;;1.23;0.88;;;;;;;;;;5055254;28;20487;-83
2023/01/17 11:39:33;;;;;;;0.40;0.40;;;;;;;;;;5052426;28;20108;-86
2023/01/17 11:41:58;;;;;;;3.40;0.88;;;;;;;;;;5059465;28;20179;-82
2023/01/17 11:44:32;;;;;;;1.67;1.15;;;;;;;;;;5055332;28;20033;-83
2023/01/17 11:47:13;;;;;;;1.63;1.33;;;;;;;;;;5054759;28;20111;-84
2023/01/17 11:49:43;;;;;;;1.33;0.80;;;;;;;;;;5057651;28;20033;-84
2023/01/17 11:52:10;;;;;;;;;;;;;;;;;;5053815;28;20389;-84
2023/01/17 11:54:39;;;;;;;1.40;1.23;;;;;;;;;;5057002;28;19912;-85
2023/01/17 11:57:16;;;;;;;0.70;0.40;;;;;;;;;;5053921;28;20059;-83
2023/01/17 11:59:42;;;;;;;1.25;0.43;;;;;;;;;;5057372;28;20024;-84
2023/01/17 12:02:39;;;;;;;0.88;0.35;;;;;;;;;;5054989;28;20020;-83
2023/01/17 12:05:42;;;;;;;1.23;0.80;;;;;;;;;;5054010;28;20029;-83
2023/01/17 12:08:25;;;;;;;0.95;0.40;;;;;;;;;;5050456;28;20028;-83
2023/01/17 12:11:09;;;;;;;0.93;0.60;;;;;;;;;;5056714;28;20488;-84
2023/01/17 12:14:02;;;;;;;0.45;0.40;;;;;;;;;;5063294;28;20480;-83
2023/01/17 12:16:48;;;;;;;0.43;0.43;;;;;;;;;;5064807;28;20027;-83
2023/01/17 12:19:37;;;;;;;0.93;0.70;;;;;;;;;;5055410;28;20477;-83
2023/01/17 12:22:15;;;;;;;1.10;0.68;;;;;;;;;;5056299;28;20016;-84
2023/01/17 12:24:52;;;;;;;2.05;1.02;;;;;;;;;;5050009;28;20029;-84
2023/01/17 12:27:46;;;;;;;0.68;0.68;;;;;;;;;;5058730;28;20032;-84
2023/01/17 12:30:36;;;;;;;1.05;0.57;;;;;;;;;;5053016;28;20425;-83
2023/01/17 12:33:23;;;;;;;0.40;0.40;;;;;;;;;;5052999;28;20496;-84
2023/01/17 12:35:54;;;;;;;0.40;0.40;;;;;;;;;;5054484;28;21931;-85
2023/01/17 12:38:33;;;;;;;0.28;0.28;;;;;;;;;;5051062;28;20086;-85
2023/01/17 12:41:11;;;;;;;0.47;0.47;;;;;;;;;;5057240;28;20012;-85
2023/01/17 12:43:39;;;;;;;0.63;0.50;;;;;;;;;;5052348;28;20083;-84
2023/01/17 12:46:19;;;;;;;0.40;0.40;;;;;;;;;;5060344;28;20028;-84
2023/01/17 12:48:49;;;;;;;0.25;0.25;;;;;;;;;;5056562;28;20490;-84
2023/01/17 12:51:26;;;;;;;0.45;0.40;;;;;;;;;;5056086;28;20461;-85
2023/01/17 12:53:57;;;;;;;0.20;0.20;;;;;;;;;;5053402;28;20031;-85
2023/01/17 12:56:31;;;;;;;0.28;0.28;;;;;;;;;;5059291;28;20211;-85
2023/01/17 12:59:14;;;;;;;3.20;0.40;;;;;;;;;;5060695;28;20055;-84
2023/01/17 13:01:42;;;;;;;1.45;0.68;;;;;;;;;;5055141;28;20028;-84
2023/01/17 13:04:19;;;;;;;0.85;0.50;;;;;;;;;;5058678;28;20025;-85
2023/01/17 13:06:57;;;;;;;0.68;0.43;;;;;;;;;;5071431;28;20052;-84
2023/01/17 13:09:24;;;;;;;0.38;0.38;;;;;;;;;;5085055;28;20508;-83
2023/01/17 13:11:56;;;;;;;0.90;0.55;;;;;;;;;;5060481;28;20025;-85
2023/01/17 13:14:22;;;;;;;0.57;0.43;;;;;;;;;;5063483;28;20380;-84
2023/01/17 13:16:59;;;;;;;0.47;0.47;;;;;;;;;;5060906;28;20028;-85
2023/01/17 13:19:27;;;;;;;0.80;0.35;;;;;;;;;;5060153;28;20036;-85
2023/01/17 13:21:54;;;;;;;3.83;0.63;;;;;;;;;;5069284;28;20527;-84
2023/01/17 13:24:46;;;;;;;0.30;0.30;;;;;;;;;;5061091;28;20385;-85
2023/01/17 13:27:30;;;;;;;0.70;0.52;;;;;;;;;;5060559;28;20025;-84
2023/01/17 13:30:33;;;;;;;1.30;1.08;;;;;;;;;;5091342;28;20028;-83
2023/01/17 13:33:27;;;;;;;0.40;0.40;;;;;;;;;;5054900;28;20033;-86
2023/01/17 13:36:31;;;;;;;1.35;0.30;;;;;;;;;;5056987;28;20171;-83
2023/01/17 13:38:57;;;;;;;0.55;0.20;;;;;;;;;;5065329;28;20037;-85
2023/01/17 13:41:44;;;;;;;0.50;0.50;;;;;;;;;;5066841;28;20027;-84
2023/01/17 13:44:37;;;;;;;;;;;;;;;;;;;;;
2023/01/17 13:47:30;;;;;;;1.70;0.70;;;;;;;;;;5013405;28;20781;-86
2023/01/17 13:50:33;;;;;;;1.65;1.00;;;;;;;;;;5052839;28;20054;-85
2023/01/17 13:52:59;;;;;;;1.73;0.70;;;;;;;;;;5062256;28;20091;-84
2023/01/17 13:55:44;;;;;;;0.80;0.50;;;;;;;;;;5053526;28;20042;-83
2023/01/17 13:58:29;;;;;;;1.40;0.73;;;;;;;;;;5062887;28;20425;-83
2023/01/17 14:00:54;;;;;;;1.27;0.70;;;;;;;;;;5057730;28;20138;-84
2023/01/17 14:03:45;;;;;;;0.52;0.30;;;;;;;;;;5060376;28;20145;-85
2023/01/17 14:06:32;;;;;;;0.43;0.43;;;;;;;;;;5057353;28;20480;-83
2023/01/17 14:09:17;;;;;;;2.13;0.75;;;;;;;;;;5058326;28;20033;-84
2023/01/17 14:11:55;;;;;;;1.08;0.63;;;;;;;;;;5068735;28;20033;-88
2023/01/17 14:14:39;;;;;;;0.52;0.52;;;;;;;;;;5060581;28;20027;-86
2023/01/17 14:17:27;;;;;;;0.57;0.40;;;;;;;;;;5064132;28;20031;-87
2023/01/17 14:19:56;;;;;;;0.57;0.50;;;;;;;;;;5061522;28;20032;-84
2023/01/17 14:22:27;;;;;;;0.40;0.40;;;;;;;;;;5065217;28;20075;-85
2023/01/17 14:25:10;;;;;;;0.77;0.50;;;;;;;;;;5057657;28;20151;-87
2023/01/17 14:27:48;;;;;;;1.25;0.75;;;;;;;;;;5061429;28;20032;-86
2023/01/17 14:30:17;;;;;;;0.50;0.50;;;;;;;;;;5067233;28;20028;-85
2023/01/17 14:32:57;;;;;;;0.40;0.40;;;;;;;;;;5060512;28;20037;-83
2023/01/17 14:35:27;;;;;;;1.45;0.68;;;;;;;;;;5057926;28;20054;-83
2023/01/17 14:37:53;;;;;;;1.10;0.70;;;;;;;;;;5054867;28;20171;-86
2023/01/17 14:40:22;;;;;;;0.75;0.52;;;;;;;;;;5063409;28;20096;-87
2023/01/17 14:42:58;;;;;;;0.93;0.82;;;;;;;;;;5064501;28;20112;-87
2023/01/17 14:45:29;;;;;;;1.58;1.05;;;;;;;;;;5054661;28;20025;-86
2023/01/17 14:48:00;;;;;;;0.50;0.50;;;;;;;;;;5054505;28;20024;-86
2023/01/17 14:50:35;;;;;;;1.08;0.80;;;;;;;;;;5060206;28;20492;-88
2023/01/17 14:53:12;;;;;;;0.57;0.43;;;;;;;;;;5052977;28;20029;-88
2023/01/17 14:55:47;;;;;;;1.08;0.75;;;;;;;;;;5056219;28;20165;-87
2023/01/17 14:58:30;;;;;;;1.83;0.82;;;;;;;;;;5056062;28;20024;-87
2023/01/17 15:01:08;;;;;;;2.35;1.35;;;;;;;;;;5062320;28;20049;-86
2023/01/17 15:03:42;;;;;;;2.20;1.23;;;;;;;;;;5057348;28;20488;-86
2023/01/17 15:06:30;;;;;;;1.02;0.93;;;;;;;;;;5054771;28;20048;-84
2023/01/17 15:08:56;;;;;;;1.63;1.40;;;;;;;;;;5064308;28;20028;-87
2023/01/17 15:11:31;;;;;;;4.30;1.52;;;;;;;;;;5053149;28;20108;-88
2023/01/17 15:13:59;;;;;;;1.75;1.23;;;;;;;;;;5059016;28;20040;-86
2023/01/17 15:16:26;;;;;;;1.70;1.05;;;;;;;;;;5053687;28;20028;-87
2023/01/17 15:18:53;;;;;;;0.85;0.68;;;;;;;;;;5053619;28;20412;-89
2023/01/17 15:21:25;;;;;;;2.20;1.20;;;;;;;;;;5061804;28;20119;-89
2023/01/17 15:23:55;;;;;;;1.38;0.90;;;;;;;;;;5060691;28;20032;-89
2023/01/17 15:26:23;;;;;;;1.13;0.80;;;;;;;;;;5056289;28;20016;-87
2023/01/17 15:28:50;;;;;;;1.27;0.60;;;;;;;;;;5062284;28;20036;-85
2023/01/17 15:31:22;;;;;;;2.25;0.95;;;;;;;;;;5063917;28;20025;-88
2023/01/17 15:33:56;;;;;;;1.80;1.25;;;;;;;;;;5056138;28;21395;-85
2023/01/17 15:36:31;;;;;;;2.38;1.60;;;;;;;;;;5057655;28;20053;-88
2023/01/17 15:39:17;;;;;;;2.30;1.40;;;;;;;;;;5062060;28;20376;-84
2023/01/17 15:41:42;;;;;;;0.70;0.52;;;;;;;;;;5058386;28;20028;-84
2023/01/17 15:44:25;;;;;;;1.23;0.80;;;;;;;;;;5060468;28;20059;-87
2023/01/17 15:46:51;;;;;;;2.30;1.52;;;;;;;;;;5061226;28;20384;-85
2023/01/17 15:49:23;;;;;;;0.80;0.80;;;;;;;;;;5057457;28;20107;-86
2023/01/17 15:51:51;;;;;;;2.33;1.13;;;;;;;;;;5056474;28;20064;-82
2023/01/17 15:54:49;;;;;;;1.40;1.08;;;;;;;;;;5059610;28;20036;-81
2023/01/17 15:57:17;;;;;;;2.08;1.35;;;;;;;;;;5053969;28;20040;-84
2023/01/17 15:59:57;;;;;;;3.80;1.77;;;;;;;;;;5061586;28;20021;-81
2023/01/17 16:02:39;;;;;;;1.85;1.45;;;;;;;;;;5060735;28;20088;-83
2023/01/17 16:05:33;;;;;;;2.10;1.42;;;;;;;;;;5057991;28;20034;-83
2023/01/17 16:08:01;;;;;;;1.42;0.90;;;;;;;;;;5060644;28;20028;-85
2023/01/17 16:10:37;;;;;;;1.23;1.02;;;;;;;;;;5057819;28;20044;-83
2023/01/17 16:13:05;;;;;;;2.08;1.50;;;;;;;;;;5052442;28;20028;-81
2023/01/17 16:15:31;;;;;;;3.00;1.35;;;;;;;;;;5058448;28;20038;-81
2023/01/17 16:18:01;;;;;;;4.20;1.77;;;;;;;;;;5063103;28;20430;-80
2023/01/17 16:20:33;;;;;;;2.95;2.15;;;;;;;;;;5052374;28;20468;-82
2023/01/17 16:22:58;;;;;;;3.65;2.05;;;;;;;;;;5060146;28;20020;-82
2023/01/17 16:25:24;;;;;;;2.58;1.67;;;;;;;;;;5060991;28;20031;-84
2023/01/17 16:27:51;;;;;;;2.60;1.60;;;;;;;;;;5057069;28;20037;-84
2023/01/17 16:30:20;;;;;;;1.27;1.10;;;;;;;;;;5056957;28;20025;-84
2023/01/17 16:32:47;;;;;;;2.65;1.52;;;;;;;;;;5049759;28;20033;-86
2023/01/17 16:35:19;;;;;;;2.80;1.30;;;;;;;;;;5049765;28;20068;-83